Terminal Aerodrome Forecast
Issued by NWS

Home | Current Version | Previous Version | Text Only | Print | Product List | Glossary On
Versions: 1 2 3 4 5 6 7 8 9 10 11 12 13 14
000
FTUS44 KLIX 022300
TAFGPT
TAF
KGPT 022340Z 0300/0324 16005KT P6SM SCT025
     FM030400 VRB03KT P6SM BKN110
     FM031400 06004KT P6SM SCT030 BKN100
      TEMPO 0316/0320 17017G27KT 1SM +TSRA BKN035CB=

USA.gov is the U.S. government's official web portal to all federal, state and local government web resources and services.